DLH109 EDDC-EDDV
Flight info
| Callsign | DLH109 |
|---|---|
| Flight time | N/A |
| Altitude | 30000 |
| Route | OSKAN9E OSKAN M748 GENTI P203 HLZ HLZ1Z |
| Aircraft | A320/M-SDE3FGHIRWY/LB1 |
Departure
| Time | 2026-05-01 11:31 |
|---|---|
| Airport | Dresden Airport (EDDC) |
Arrival
| Time | N/A |
|---|---|
| Airport | Hannover Airport (EDDV) |
| Time | Latitude | Longitude | Altitude | Speed | Heading |
|---|---|---|---|---|---|
| 2026-05-01 10:59 | 51.12595 | 13.76604 | 714 ft | 0 kts | 221° |
| 2026-05-01 11:20 | 51.12601 | 13.76611 | 715 ft | 4 kts | 223° |
| 2026-05-01 11:21 | 51.12619 | 13.76643 | 715 ft | 4 kts | 238° |
| 2026-05-01 11:21 | 51.12629 | 13.76680 | 715 ft | 4 kts | 269° |
| 2026-05-01 11:21 | 51.12625 | 13.76709 | 716 ft | 0 kts | 311° |
| 2026-05-01 11:24 | 51.12660 | 13.76641 | 714 ft | 6 kts | 309° |
| 2026-05-01 11:25 | 51.12686 | 13.76595 | 711 ft | 5 kts | 312° |
| 2026-05-01 11:25 | 51.12732 | 13.76513 | 713 ft | 6 kts | 311° |
| 2026-05-01 11:25 | 51.12760 | 13.76463 | 711 ft | 7 kts | 311° |
| 2026-05-01 11:26 | 51.12762 | 13.76355 | 713 ft | 12 kts | 225° |
| 2026-05-01 11:26 | 51.12643 | 13.76189 | 713 ft | 10 kts | 220° |
| 2026-05-01 11:26 | 51.12591 | 13.76118 | 712 ft | 9 kts | 220° |
| 2026-05-01 11:27 | 51.12548 | 13.76058 | 714 ft | 8 kts | 220° |
| 2026-05-01 11:27 | 51.12509 | 13.76005 | 711 ft | 7 kts | 220° |
| 2026-05-01 11:27 | 51.12476 | 13.75960 | 714 ft | 6 kts | 220° |
| 2026-05-01 11:27 | 51.12448 | 13.75922 | 711 ft | 5 kts | 220° |
| 2026-05-01 11:28 | 51.12406 | 13.75864 | 712 ft | 18 kts | 220° |
| 2026-05-01 11:28 | 51.12380 | 13.75724 | 715 ft | 15 kts | 287° |
| 2026-05-01 11:28 | 51.12428 | 13.75568 | 715 ft | 17 kts | 305° |
| 2026-05-01 11:29 | 51.12599 | 13.75653 | 714 ft | 0 kts | 40° |
| 2026-05-01 11:30 | 51.12614 | 13.75673 | 713 ft | 18 kts | 40° |
| 2026-05-01 11:30 | 51.12938 | 13.76116 | 713 ft | 100 kts | 40° |
| 2026-05-01 11:30 | 51.13639 | 13.77083 | 714 ft | 161 kts | 40° |
| 2026-05-01 11:30 | 51.14582 | 13.78372 | 1012 ft | 187 kts | 41° |
| 2026-05-01 11:31 | 51.15549 | 13.79741 | 1748 ft | 188 kts | 41° |
| 2026-05-01 11:31 | 51.16592 | 13.81207 | 2217 ft | 209 kts | 41° |
| 2026-05-01 11:31 | 51.17731 | 13.82796 | 2675 ft | 230 kts | 40° |
| 2026-05-01 11:31 | 51.18978 | 13.84517 | 3387 ft | 241 kts | 39° |
| 2026-05-01 11:32 | 51.20484 | 13.85734 | 4242 ft | 245 kts | 7° |
| 2026-05-01 11:32 | 51.22172 | 13.85431 | 5087 ft | 247 kts | 345° |
| 2026-05-01 11:32 | 51.23855 | 13.84779 | 5983 ft | 250 kts | 347° |
| 2026-05-01 11:32 | 51.25572 | 13.84233 | 6841 ft | 253 kts | 349° |
| 2026-05-01 11:33 | 51.27366 | 13.83767 | 7445 ft | 272 kts | 351° |
| 2026-05-01 11:33 | 51.29275 | 13.83346 | 8258 ft | 280 kts | 351° |
| 2026-05-01 11:33 | 51.31171 | 13.82591 | 9153 ft | 284 kts | 339° |
| 2026-05-01 11:33 | 51.32937 | 13.81152 | 10046 ft | 288 kts | 325° |
| 2026-05-01 11:34 | 51.34551 | 13.79083 | 10525 ft | 309 kts | 319° |
| 2026-05-01 11:34 | 51.36211 | 13.76752 | 11085 ft | 323 kts | 318° |
| 2026-05-01 11:34 | 51.37913 | 13.74340 | 11877 ft | 329 kts | 318° |
| 2026-05-01 11:34 | 51.39612 | 13.71926 | 12683 ft | 333 kts | 318° |
| 2026-05-01 11:35 | 51.41402 | 13.69386 | 13496 ft | 337 kts | 318° |
| 2026-05-01 11:35 | 51.43172 | 13.66880 | 14284 ft | 341 kts | 318° |
| 2026-05-01 11:35 | 51.44962 | 13.64348 | 15021 ft | 345 kts | 318° |
| 2026-05-01 11:35 | 51.46777 | 13.61783 | 15753 ft | 349 kts | 318° |
| 2026-05-01 11:36 | 51.48608 | 13.59198 | 16450 ft | 353 kts | 318° |
| 2026-05-01 11:36 | 51.50469 | 13.56573 | 17154 ft | 357 kts | 318° |
| 2026-05-01 11:36 | 51.52341 | 13.53926 | 17821 ft | 361 kts | 318° |
| 2026-05-01 11:36 | 51.54230 | 13.51253 | 18482 ft | 364 kts | 318° |
| 2026-05-01 11:37 | 51.56143 | 13.48536 | 19118 ft | 368 kts | 318° |
| 2026-05-01 11:37 | 51.58064 | 13.45803 | 19750 ft | 372 kts | 318° |
| 2026-05-01 11:37 | 51.60010 | 13.43030 | 20371 ft | 375 kts | 318° |
| 2026-05-01 11:37 | 51.61970 | 13.40232 | 20978 ft | 379 kts | 318° |
| 2026-05-01 11:38 | 51.63950 | 13.37399 | 21576 ft | 382 kts | 318° |
| 2026-05-01 11:38 | 51.65941 | 13.34549 | 22158 ft | 385 kts | 318° |
| 2026-05-01 11:38 | 51.67959 | 13.31666 | 22729 ft | 389 kts | 318° |
| 2026-05-01 11:38 | 51.69992 | 13.28760 | 23291 ft | 392 kts | 318° |
| 2026-05-01 11:39 | 51.72039 | 13.25825 | 23842 ft | 395 kts | 318° |
| 2026-05-01 11:39 | 51.74101 | 13.22861 | 24373 ft | 399 kts | 318° |
| 2026-05-01 11:39 | 51.76180 | 13.19863 | 24837 ft | 402 kts | 318° |
| 2026-05-01 11:39 | 51.78265 | 13.16855 | 24978 ft | 402 kts | 318° |
| 2026-05-01 11:40 | 51.80313 | 13.13899 | 25004 ft | 389 kts | 318° |
| 2026-05-01 11:40 | 51.82315 | 13.11003 | 25012 ft | 385 kts | 318° |
| 2026-05-01 11:40 | 51.84312 | 13.08112 | 25005 ft | 384 kts | 318° |
| 2026-05-01 11:40 | 51.86301 | 13.05236 | 25015 ft | 383 kts | 318° |
| 2026-05-01 11:41 | 51.88288 | 13.02359 | 25017 ft | 383 kts | 318° |
| 2026-05-01 11:41 | 51.90298 | 12.99440 | 25004 ft | 383 kts | 317° |
| 2026-05-01 11:41 | 51.92279 | 12.96552 | 25012 ft | 383 kts | 317° |
| 2026-05-01 11:41 | 51.94235 | 12.93706 | 25007 ft | 383 kts | 318° |